CST,Max TemperatureF,Mean TemperatureF,Min TemperatureF,Max Dew PointF,MeanDew PointF,Min DewpointF,Max Humidity, Mean Humidity, Min Humidity, Max Sea Level PressureIn, Mean Sea Level PressureIn, Min Sea Level PressureIn, Max VisibilityMiles, Mean VisibilityMiles, Min VisibilityMiles, Max Wind SpeedMPH, Mean Wind SpeedMPH, Max Gust SpeedMPH,PrecipitationIn, CloudCover, Events, WindDirDegrees
2013-2-1,68,46,25,20,18,16,72,38,14,30.23,30.14,30.04,10,10,10,12,5,17,0.00,0,,147
2013-2-2,66,48,30,22,19,17,60,35,16,30.30,30.22,30.09,10,10,10,16,8,20,0.00,0,,49
2013-2-3,64,47,30,45,31,22,77,51,31,30.27,30.09,29.87,10,10,10,16,8,23,0.00,0,,123
2013-2-4,70,54,37,42,27,17,86,44,14,29.95,29.88,29.81,10,10,10,16,7,23,0.00,1,,327
2013-2-5,70,50,30,33,26,18,64,43,22,30.00,29.92,29.86,10,10,6,9,5,,0.00,0,,292
2013-2-6,75,54,33,30,28,25,75,42,17,29.95,29.84,29.74,10,10,10,17,7,24,0.00,0,,288
2013-2-7,68,56,44,29,25,22,51,33,18,30.11,29.98,29.82,10,10,10,15,8,25,0.00,0,,348
2013-2-8,64,47,30,32,27,23,72,43,23,30.21,30.05,29.86,10,10,10,22,10,31,0.00,0,,127
2013-2-9,79,64,46,40,26,1,63,35,5,29.84,29.68,29.48,10,9,2,32,18,44,0.00,2,,195
2013-2-10,62,46,30,16,8,-2,47,24,8,29.95,29.87,29.81,10,10,10,14,7,20,0.00,0,,253
2013-2-11,66,47,28,40,21,6,71,35,21,30.00,29.89,29.78,10,10,10,20,7,30,0.00,1,Rain,94
2013-2-12,55,45,32,40,29,22,93,56,28,30.09,29.94,29.78,10,10,10,24,12,39,0.00,2,,325
2013-2-13,62,42,23,27,14,4,88,44,10,30.14,30.05,29.93,10,10,10,16,6,23,0.00,0,,262
2013-2-14,68,46,24,25,10,7,48,28,11,30.06,29.98,29.89,10,10,10,21,4,30,0.00,0,,337
2013-2-15,52,42,32,31,25,17,78,53,30,30.38,30.29,30.06,10,10,10,20,12,28,0.00,1,,39
2013-2-16,66,44,21,25,14,7,68,38,10,30.41,30.27,30.07,10,10,10,15,6,18,0.00,0,,238
2013-2-17,73,48,24,20,11,3,54,26,7,30.05,29.89,29.73,10,10,10,15,6,18,0.00,0,,166
2013-2-18,71,53,35,33,14,-1,81,30,6,30.02,29.88,29.72,10,10,10,17,9,28,0.00,0,,268
2013-2-19,57,46,36,43,28,16,86,52,28,30.12,30.03,29.94,10,10,10,24,7,32,0.02,3,Rain,106
2013-2-20,70,56,42,52,44,36,89,72,39,29.92,29.64,29.39,10,10,6,23,12,29,0.00,4,,114
2013-2-21,61,50,39,32,21,15,53,35,20,29.89,29.73,29.57,10,10,10,34,21,43,0.00,1,,268
2013-2-22,62,46,30,26,21,13,82,43,16,30.02,29.92,29.85,10,10,10,20,7,23,0.00,0,,284
2013-2-23,66,49,32,20,15,8,59,30,10,30.01,29.88,29.73,10,10,10,16,8,25,0.00,0,,233
2013-2-24,75,55,35,26,14,-2,57,27,5,29.71,29.60,29.40,10,10,10,26,9,32,0.00,1,,191
2013-2-25,54,44,32,30,20,13,70,44,20,29.97,29.84,29.64,10,10,10,38,20,47,0.00,3,Snow,317
2013-2-26,69,44,19,15,8,0,68,29,7,29.92,29.83,29.68,10,10,10,25,6,34,0.00,0,,286
2013-2-27,55,42,30,23,17,0,69,38,15,30.26,30.16,29.92,10,10,10,20,12,26,0.00,0,,4
2013-2-28,57,40,23,23,16,10,75,42,16,30.32,30.25,30.19,10,10,7,9,5,,0.00,0,,289